This is the latest recevied weather packets stored in our database for station/object AI9F. If no packets are shown the sender has not sent any weather packets the latest 10 day(s).
| Time | Temp. | Humidity | Pressure | Rain* | Wind** | Luminosity | Snow |
|---|---|---|---|---|---|---|---|
| 1777929104 | 21.67° C | 51% | 1004.8 hPa | 0 mm | - | 74 W/m² | - |
| 1777928802 | 21.67° C | 49% | 1005 hPa | 0 mm | - | 66 W/m² | - |
| 1777928498 | 21.67° C | 50% | 1005.2 hPa | 0 mm | - | 36 W/m² | - |
| 1777928196 | 21.67° C | 49% | 1006.5 hPa | 0 mm | - | 18 W/m² | - |
| 1777927893 | 21.67° C | 51% | 1006.5 hPa | 0 mm | - | 20 W/m² | - |
| 1777927591 | 21.11° C | 54% | 1006.6 hPa | 0 mm | - | 38 W/m² | - |
| 1777927290 | 20.56° C | 59% | 1006.5 hPa | 0 mm | - | 45 W/m² | - |
| 1777926988 | 20.56° C | 59% | 1006.5 hPa | 0 mm | - | 28 W/m² | - |
| 1777926686 | 20.56° C | 60% | 1006.8 hPa | 0 mm | - | 22 W/m² | - |
| 1777926386 | 20.56° C | 60% | 1006.8 hPa | 0 mm | - | 22 W/m² | - |
| 1777926083 | 20.56° C | 64% | 1007.2 hPa | 0 mm | - | 21 W/m² | - |
| 1777925780 | 20.56° C | 65% | 1006.9 hPa | 0 mm | - | 28 W/m² | - |
| 1777925478 | 20.56° C | 64% | 1006.7 hPa | 0 mm | - | 36 W/m² | - |
| 1777925175 | 20.56° C | 64% | 1006.8 hPa | 0 mm | - | 42 W/m² | - |
| 1777924871 | 21.11° C | 61% | 1006.9 hPa | 0 mm | - | 36 W/m² | - |
| 1777924567 | 21.67° C | 62% | 1007.6 hPa | 0 mm | - | 30 W/m² | - |
| 1777924263 | 21.67° C | 56% | 1007.7 hPa | 0 mm | - | 37 W/m² | - |
| 1777923960 | 21.67° C | 58% | 1007.9 hPa | 0 mm | - | 48 W/m² | - |
| 1777923655 | 22.22° C | 54% | 1007.9 hPa | 0 mm | - | 53 W/m² | - |
| 1777923352 | 22.22° C | 54% | 1007.8 hPa | 0 mm | - | 60 W/m² | - |
| 1777923051 | 22.22° C | 54% | 1007.8 hPa | 0 mm | - | 66 W/m² | - |
| 1777922749 | 22.78° C | 52% | 1007.8 hPa | 0 mm | - | 78 W/m² | - |
| 1777922447 | 22.78° C | 51% | 1007.5 hPa | 0 mm | - | 94 W/m² | - |
| 1777922144 | 22.78° C | 51% | 1007.5 hPa | 0 mm | - | 112 W/m² | - |
| 1777921840 | 22.78° C | 51% | 1007.3 hPa | 0 mm | - | 109 W/m² | - |
* Rain latest hour (hover to see other rain measurements)
** Current wind speed in m/s (hover to see current wind gust speed)